createdAt,value
2022-09-17T00:01:21.447Z,94261.91
2022-09-17T00:03:53.785Z,94260.31
2022-09-17T00:06:22.990Z,94256.72
2022-09-17T00:08:50.595Z,94247.53
2022-09-17T00:11:28.893Z,94251.41
2022-09-17T00:13:57.768Z,94240.69
2022-09-17T00:16:32.339Z,94234.09
2022-09-17T00:19:00.580Z,94231.22
2022-09-17T00:21:28.633Z,94218.84
2022-09-17T00:24:03.370Z,94229.84
2022-09-17T00:26:31.167Z,94242.00
2022-09-17T00:28:59.140Z,94240.28
2022-09-17T00:31:27.536Z,94215.50
2022-09-17T00:33:54.785Z,94222.69
2022-09-17T00:36:21.943Z,94236.28
2022-09-17T00:38:53.533Z,94234.88
2022-09-17T00:41:22.796Z,94238.97
2022-09-17T00:43:55.921Z,94240.50
2022-09-17T00:46:22.672Z,94238.53
2022-09-17T00:48:51.116Z,94258.13
2022-09-17T00:51:22.916Z,94247.13
2022-09-17T00:53:49.702Z,94251.78
2022-09-17T00:56:20.029Z,94243.34
2022-09-17T00:58:47.144Z,94252.91
2022-09-17T01:01:14.380Z,94268.19
2022-09-17T01:03:41.548Z,94268.38
2022-09-17T01:06:25.573Z,94258.72
2022-09-17T01:09:31.061Z,94269.22
2022-09-17T01:12:21.195Z,94258.81
2022-09-17T01:15:03.379Z,94244.38
2022-09-17T01:17:30.163Z,94226.84
2022-09-17T01:20:30.686Z,94231.84
2022-09-17T01:23:12.567Z,94217.22
2022-09-17T01:26:04.674Z,94231.34
2022-09-17T01:28:58.861Z,94224.19
2022-09-17T01:31:30.562Z,94237.59
2022-09-17T01:34:12.300Z,94227.91
2022-09-17T01:36:43.950Z,94254.09
2022-09-17T01:39:44.545Z,94229.28
2022-09-17T01:42:20.002Z,94232.97
2022-09-17T01:45:09.981Z,94212.13
2022-09-17T01:47:47.519Z,94214.63
2022-09-17T01:50:25.681Z,94216.97
2022-09-17T01:52:55.429Z,94187.97
2022-09-17T01:55:26.753Z,94189.94
2022-09-17T01:57:56.043Z,94187.53
2022-09-17T02:00:23.641Z,94231.91
2022-09-17T02:03:05.886Z,94231.88
2022-09-17T02:05:44.106Z,94211.34
2022-09-17T02:08:28.795Z,94224.63
2022-09-17T02:11:05.454Z,94186.16
2022-09-17T02:13:38.292Z,94166.44
2022-09-17T02:16:12.992Z,94171.69
2022-09-17T02:18:50.891Z,94144.97
2022-09-17T02:21:43.150Z,94151.34
2022-09-17T02:24:10.030Z,94098.84
2022-09-17T02:26:45.878Z,94095.44
2022-09-17T02:29:30.898Z,94123.19
2022-09-17T02:31:58.009Z,94082.53
2022-09-17T02:34:27.742Z,94071.06
2022-09-17T02:37:01.297Z,94061.25
2022-09-17T02:39:28.703Z,94092.25
2022-09-17T02:42:23.374Z,94120.31
2022-09-17T02:45:15.053Z,94126.38
2022-09-17T02:48:02.591Z,94117.72
2022-09-17T02:50:42.485Z,94108.81
2022-09-17T02:53:31.254Z,94093.75
2022-09-17T02:56:25.509Z,94097.84
2022-09-17T02:59:19.860Z,94123.69
2022-09-17T03:01:52.571Z,94124.16
2022-09-17T03:04:22.528Z,94086.09
2022-09-17T03:06:52.176Z,94080.31
2022-09-17T03:09:18.964Z,94094.00
2022-09-17T03:11:47.182Z,94078.63
2022-09-17T03:14:13.858Z,94068.31
2022-09-17T03:16:40.650Z,94083.19
2022-09-17T03:19:07.371Z,94089.25
2022-09-17T03:21:34.240Z,94081.28
2022-09-17T03:24:01.190Z,94064.94
2022-09-17T03:26:27.985Z,94067.09
2022-09-17T03:28:55.732Z,94099.31
2022-09-17T03:31:22.677Z,94087.81
2022-09-17T03:33:50.229Z,94071.75
2022-09-17T03:36:16.969Z,94079.97
2022-09-17T03:38:43.924Z,94064.44
2022-09-17T03:41:11.428Z,94048.00
2022-09-17T03:43:39.862Z,94071.59
2022-09-17T03:46:06.784Z,94074.28
2022-09-17T03:48:37.139Z,94028.25
2022-09-17T03:51:04.652Z,94060.28
2022-09-17T03:53:32.071Z,94049.88
2022-09-17T03:56:01.661Z,94035.00
2022-09-17T03:58:30.537Z,94048.47
2022-09-17T04:00:57.844Z,94064.94
2022-09-17T04:03:26.088Z,94065.38
2022-09-17T04:05:53.092Z,94075.03
2022-09-17T04:08:20.698Z,94065.47
2022-09-17T04:10:48.017Z,94088.69
2022-09-17T04:13:16.378Z,94083.13
2022-09-17T04:15:43.460Z,94084.88
2022-09-17T04:18:10.604Z,94080.22
2022-09-17T04:20:37.490Z,94092.00
2022-09-17T04:23:04.632Z,94129.34
2022-09-17T04:25:32.774Z,94139.88
2022-09-17T04:27:59.597Z,94150.50
2022-09-17T04:30:26.535Z,94158.47
2022-09-17T04:32:53.261Z,94153.66
2022-09-17T04:35:19.931Z,94169.78
2022-09-17T04:37:53.417Z,94181.66
2022-09-17T04:40:21.222Z,94176.50
2022-09-17T04:42:47.884Z,94197.69
2022-09-17T04:45:14.743Z,94201.63
2022-09-17T04:47:41.724Z,94211.06
2022-09-17T04:50:08.866Z,94223.28
2022-09-17T04:52:35.606Z,94215.19
2022-09-17T04:55:02.481Z,94222.97
2022-09-17T04:57:29.283Z,94240.44
2022-09-17T04:59:55.919Z,94244.97
2022-09-17T05:02:22.924Z,94251.72
2022-09-17T05:04:50.711Z,94250.72
2022-09-17T05:07:17.516Z,94246.66
2022-09-17T05:09:44.259Z,94239.53
2022-09-17T05:12:11.131Z,94227.06
2022-09-17T05:14:37.817Z,94231.59
2022-09-17T05:17:04.780Z,94227.81
2022-09-17T05:19:31.462Z,94226.09
2022-09-17T05:21:58.498Z,94205.94
2022-09-17T05:24:25.408Z,94193.78
2022-09-17T05:26:52.191Z,94187.16
2022-09-17T05:29:18.920Z,94176.25
2022-09-17T05:31:45.707Z,94166.22
2022-09-17T05:34:12.676Z,94172.38
2022-09-17T05:36:39.484Z,94177.44
2022-09-17T05:39:06.289Z,94195.28
2022-09-17T05:41:34.266Z,94202.94
2022-09-17T05:44:01.191Z,94211.63
2022-09-17T05:46:28.201Z,94204.47
2022-09-17T05:48:58.042Z,94219.81
2022-09-17T05:51:25.102Z,94217.72
2022-09-17T05:53:54.469Z,94211.75
2022-09-17T05:56:21.984Z,94216.22
2022-09-17T05:58:48.730Z,94209.34
2022-09-17T06:01:16.401Z,94217.81
2022-09-17T06:03:43.147Z,94217.72
2022-09-17T06:06:10.919Z,94207.44
2022-09-17T06:08:37.893Z,94195.75
2022-09-17T06:11:05.981Z,94216.41
2022-09-17T06:13:33.829Z,94198.84
2022-09-17T06:16:02.173Z,94222.91
2022-09-17T06:18:30.835Z,94230.66
2022-09-17T06:21:02.912Z,94254.72
2022-09-17T06:23:37.286Z,94272.69
2022-09-17T06:26:06.122Z,94284.78
2022-09-17T06:28:34.271Z,94280.16
2022-09-17T06:31:04.721Z,94289.66
2022-09-17T06:33:32.950Z,94290.00
2022-09-17T06:36:02.994Z,94298.72
2022-09-17T06:38:32.224Z,94314.25
2022-09-17T06:40:59.248Z,94306.31
2022-09-17T06:43:26.629Z,94298.34
2022-09-17T06:46:00.128Z,94292.44
2022-09-17T06:48:29.694Z,94285.88
2022-09-17T06:51:01.800Z,94253.44
2022-09-17T06:53:29.701Z,94266.91
2022-09-17T06:56:06.016Z,94263.88
2022-09-17T06:58:34.821Z,94254.28
2022-09-17T07:01:02.377Z,94245.44
2022-09-17T07:03:30.873Z,94237.38
2022-09-17T07:05:58.403Z,94237.81
2022-09-17T07:08:26.247Z,94244.88
2022-09-17T07:10:57.235Z,94224.06
2022-09-17T07:13:24.720Z,94221.16
2022-09-17T07:15:55.913Z,94203.97
2022-09-17T07:18:23.463Z,94185.53
2022-09-17T07:21:10.252Z,94181.16
2022-09-17T07:23:38.098Z,94182.84
2022-09-17T07:26:08.948Z,94163.59
2022-09-17T07:28:39.595Z,94174.19
2022-09-17T07:31:06.717Z,94177.41
2022-09-17T07:33:34.919Z,94175.44
2022-09-17T07:36:03.833Z,94181.78
2022-09-17T07:38:31.359Z,94180.63
2022-09-17T07:41:06.165Z,94181.25
2022-09-17T07:43:35.377Z,94169.03
2022-09-17T07:46:04.836Z,94170.63
2022-09-17T07:48:32.151Z,94164.09
2022-09-17T07:50:59.075Z,94162.81
2022-09-17T07:53:26.140Z,94172.13
2022-09-17T07:55:53.899Z,94159.69
2022-09-17T07:58:25.039Z,94153.09
2022-09-17T08:00:51.921Z,94163.84
2022-09-17T08:03:18.866Z,94143.78
2022-09-17T08:05:45.847Z,94155.25
2022-09-17T08:08:13.656Z,94150.22
2022-09-17T08:10:41.017Z,94139.84
2022-09-17T08:13:07.866Z,94140.78
2022-09-17T08:15:37.791Z,94149.31
2022-09-17T08:18:04.771Z,94141.75
2022-09-17T08:20:31.410Z,94119.13
2022-09-17T08:22:59.866Z,94136.66
2022-09-17T08:25:27.319Z,94128.78
2022-09-17T08:27:56.558Z,94133.81
2022-09-17T08:30:23.789Z,94128.72
2022-09-17T08:32:50.680Z,94117.81
2022-09-17T08:35:17.838Z,94131.09
2022-09-17T08:37:44.956Z,94137.72
2022-09-17T08:40:19.495Z,94121.97
2022-09-17T08:43:00.322Z,94132.28
2022-09-17T08:45:27.611Z,94129.69
2022-09-17T08:48:01.297Z,94116.38
2022-09-17T08:50:34.216Z,94128.91
2022-09-17T08:53:08.949Z,94123.53
2022-09-17T08:55:53.666Z,94114.50
2022-09-17T08:58:20.450Z,94123.94
2022-09-17T09:01:29.220Z,94129.78
2022-09-17T09:04:00.604Z,94124.81
2022-09-17T09:06:32.842Z,94126.69
2022-09-17T09:09:15.253Z,94126.31
2022-09-17T09:11:44.069Z,94122.94
2022-09-17T09:14:24.533Z,94146.63
2022-09-17T09:16:54.371Z,94145.69
2022-09-17T09:19:34.067Z,94144.66
2022-09-17T09:22:13.729Z,94151.28
2022-09-17T09:25:12.263Z,94151.56
2022-09-17T09:27:55.710Z,94165.66
2022-09-17T09:30:24.397Z,94167.50
2022-09-17T09:33:05.444Z,94191.66
2022-09-17T09:35:36.414Z,94188.72
2022-09-17T09:38:09.315Z,94184.16
2022-09-17T09:40:55.311Z,94208.88
2022-09-17T09:44:04.125Z,94213.34
2022-09-17T09:46:49.942Z,94215.69
2022-09-17T09:49:40.670Z,94199.28
2022-09-17T09:52:49.326Z,94221.97
2022-09-17T09:55:37.779Z,94220.41
2022-09-17T09:58:32.671Z,94227.97
2022-09-17T10:00:59.707Z,94242.72
2022-09-17T10:03:32.250Z,94239.63
2022-09-17T10:06:10.913Z,94183.03
2022-09-17T10:08:40.763Z,94200.16
2022-09-17T10:11:21.729Z,94175.19
2022-09-17T10:13:48.692Z,94149.16
2022-09-17T10:16:29.484Z,94142.84
2022-09-17T10:19:05.621Z,94133.88
2022-09-17T10:21:34.988Z,94119.66
2022-09-17T10:24:03.776Z,94112.53
2022-09-17T10:26:36.645Z,94097.56
2022-09-17T10:29:14.260Z,94089.63
2022-09-17T10:31:52.859Z,94106.47
2022-09-17T10:34:26.067Z,94101.63
2022-09-17T10:36:54.749Z,94108.75
2022-09-17T10:39:27.271Z,94107.25
2022-09-17T10:42:14.279Z,94109.22
2022-09-17T10:44:56.027Z,94096.38
2022-09-17T10:47:29.113Z,94092.41
2022-09-17T10:50:18.027Z,94060.63
2022-09-17T10:52:52.880Z,94051.59
2022-09-17T10:55:39.286Z,94066.03
2022-09-17T10:58:06.385Z,94034.00
2022-09-17T11:01:16.441Z,94018.50
2022-09-17T11:04:02.088Z,94010.34
2022-09-17T11:06:50.064Z,94020.72
2022-09-17T11:09:34.760Z,94042.69
2022-09-17T11:12:02.020Z,94062.28
2022-09-17T11:14:41.442Z,94074.44
2022-09-17T11:17:23.972Z,94066.03
2022-09-17T11:20:06.055Z,94058.47
2022-09-17T11:23:01.917Z,94060.25
2022-09-17T11:25:28.890Z,94073.97
2022-09-17T11:28:16.696Z,94090.22
2022-09-17T11:30:55.534Z,94099.03
2022-09-17T11:33:50.911Z,94101.72
2022-09-17T11:36:23.478Z,94094.50
2022-09-17T11:38:51.486Z,94092.47
2022-09-17T11:41:26.297Z,94082.47
2022-09-17T11:44:10.363Z,94084.78
2022-09-17T11:46:45.656Z,94070.84
2022-09-17T11:49:16.797Z,94081.75
2022-09-17T11:51:48.989Z,94101.00
2022-09-17T11:54:33.817Z,94064.72
2022-09-17T11:57:07.645Z,94080.94
2022-09-17T11:59:55.333Z,94066.53
2022-09-17T12:02:44.735Z,94071.63
2022-09-17T12:05:37.975Z,94065.84
2022-09-17T12:08:25.432Z,94047.22
2022-09-17T12:11:13.369Z,94064.66
2022-09-17T12:13:45.872Z,94052.03
2022-09-17T12:16:31.417Z,94046.78
2022-09-17T12:19:18.649Z,94055.25
2022-09-17T12:22:11.913Z,94042.09
2022-09-17T12:24:39.474Z,94057.16
2022-09-17T12:27:48.101Z,94054.06
2022-09-17T12:30:32.530Z,94030.88
2022-09-17T12:33:14.664Z,94039.22
2022-09-17T12:36:16.162Z,94035.53
2022-09-17T12:39:10.411Z,94036.16
2022-09-17T12:41:54.514Z,94032.41
2022-09-17T12:44:24.351Z,94027.16
2022-09-17T12:47:22.488Z,94038.13
2022-09-17T12:49:58.127Z,94017.56
2022-09-17T12:52:54.263Z,94005.88
2022-09-17T12:55:40.265Z,94024.53
2022-09-17T12:58:21.014Z,94035.09
2022-09-17T13:01:01.977Z,94022.56
2022-09-17T13:04:13.197Z,94013.25
2022-09-17T13:07:07.964Z,94014.44
2022-09-17T13:09:45.456Z,94000.06
2022-09-17T13:12:25.378Z,94005.53
2022-09-17T13:15:17.635Z,93997.97
2022-09-17T13:18:12.847Z,94007.16
2022-09-17T13:20:44.939Z,94009.59
2022-09-17T13:23:12.819Z,94014.66
2022-09-17T13:25:53.256Z,93988.13
2022-09-17T13:28:20.014Z,94005.41
2022-09-17T13:31:01.556Z,93995.94
2022-09-17T13:33:51.707Z,93978.72
2022-09-17T13:36:48.698Z,93964.56
2022-09-17T13:39:56.142Z,93964.78
2022-09-17T13:42:29.535Z,93948.75
2022-09-17T13:45:16.199Z,93951.75
2022-09-17T13:48:01.610Z,93939.84
2022-09-17T13:50:33.021Z,93930.91
2022-09-17T13:53:26.856Z,93933.75
2022-09-17T13:55:58.690Z,93902.31
2022-09-17T13:58:27.984Z,93904.16
2022-09-17T14:01:04.910Z,93905.91
2022-09-17T14:03:33.631Z,93895.19
2022-09-17T14:06:10.929Z,93881.25
2022-09-17T14:08:43.779Z,93880.53
2022-09-17T14:11:23.075Z,93879.91
2022-09-17T14:13:51.066Z,93896.72
2022-09-17T14:16:40.512Z,93904.03
2022-09-17T14:19:16.886Z,93908.28
2022-09-17T14:22:00.740Z,93913.19
2022-09-17T14:24:42.734Z,93914.22
2022-09-17T14:27:12.300Z,93920.88
2022-09-17T14:29:48.802Z,93933.28
2022-09-17T14:32:33.139Z,93932.13
2022-09-17T14:35:20.106Z,93892.19
2022-09-17T14:37:54.827Z,93895.88
2022-09-17T14:40:24.127Z,93863.72
2022-09-17T14:42:57.520Z,93867.16
2022-09-17T14:45:28.598Z,93842.75
2022-09-17T14:48:26.363Z,93828.25
2022-09-17T14:51:11.271Z,93866.13
2022-09-17T14:53:39.551Z,93876.03
2022-09-17T14:56:11.487Z,93872.63
2022-09-17T14:58:43.181Z,93846.59
2022-09-17T15:01:25.137Z,93813.03
2022-09-17T15:04:21.084Z,93825.72
2022-09-17T15:06:48.108Z,93852.00
2022-09-17T15:09:19.076Z,93848.94
2022-09-17T15:11:50.057Z,93829.81
2022-09-17T15:14:20.985Z,93816.78
2022-09-17T15:16:51.635Z,93828.84
2022-09-17T15:19:23.957Z,93827.53
2022-09-17T15:21:55.223Z,93820.72
2022-09-17T15:24:40.541Z,93824.13
2022-09-17T15:27:24.862Z,93813.16
2022-09-17T15:29:56.953Z,93821.06
2022-09-17T15:32:24.190Z,93813.19
2022-09-17T15:35:15.817Z,93799.41
2022-09-17T15:37:46.691Z,93815.59
2022-09-17T15:40:32.153Z,93809.22
2022-09-17T15:43:06.225Z,93817.25
2022-09-17T15:45:39.243Z,93810.75
2022-09-17T15:48:10.954Z,93818.81
2022-09-17T15:50:52.416Z,93808.31
2022-09-17T15:53:27.686Z,93820.19
2022-09-17T15:56:13.348Z,93817.00
2022-09-17T15:58:42.832Z,93813.72
2022-09-17T16:01:15.860Z,93815.66
2022-09-17T16:03:45.703Z,93805.63
2022-09-17T16:06:18.248Z,93785.25
2022-09-17T16:09:25.370Z,93783.97
2022-09-17T16:11:52.254Z,93784.59
2022-09-17T16:14:19.000Z,93785.00
2022-09-17T16:16:48.025Z,93784.72
2022-09-17T16:19:16.777Z,93771.44
2022-09-17T16:21:43.724Z,93774.84
2022-09-17T16:24:10.739Z,93781.63
2022-09-17T16:26:38.207Z,93792.53
2022-09-17T16:29:07.793Z,93772.16
2022-09-17T16:31:34.773Z,93779.31
2022-09-17T16:34:01.752Z,93763.66
2022-09-17T16:36:31.175Z,93749.25
2022-09-17T16:38:58.759Z,93734.78
2022-09-17T16:41:25.564Z,93735.25
2022-09-17T16:43:52.301Z,93737.47
2022-09-17T16:46:19.343Z,93734.66
2022-09-17T16:48:50.308Z,93709.94
2022-09-17T16:51:17.765Z,93707.34
2022-09-17T16:53:44.573Z,93720.38
2022-09-17T16:56:14.337Z,93731.66
2022-09-17T16:58:41.771Z,93724.38
2022-09-17T17:01:14.959Z,93715.47
2022-09-17T17:03:42.817Z,93711.09
2022-09-17T17:06:17.128Z,93735.69
2022-09-17T17:08:44.314Z,93749.84
2022-09-17T17:11:11.293Z,93757.88
2022-09-17T17:13:38.132Z,93772.41
2022-09-17T17:16:14.126Z,93775.88
2022-09-17T17:18:44.944Z,93778.75
2022-09-17T17:21:14.038Z,93773.13
2022-09-17T17:23:43.563Z,93780.69
2022-09-17T17:26:10.323Z,93780.22
2022-09-17T17:28:37.853Z,93770.63
2022-09-17T17:31:05.020Z,93761.91
2022-09-17T17:33:32.225Z,93776.25
2022-09-17T17:36:08.095Z,93749.63
2022-09-17T17:38:36.615Z,93753.22
2022-09-17T17:41:12.282Z,93767.22
2022-09-17T17:43:40.130Z,93782.44
2022-09-17T17:46:09.110Z,93778.19
2022-09-17T17:48:36.734Z,93765.56
2022-09-17T17:51:05.716Z,93807.94
2022-09-17T17:53:32.579Z,93821.00
2022-09-17T17:56:01.632Z,93828.94
2022-09-17T17:58:29.401Z,93832.03
2022-09-17T18:00:56.332Z,93831.53
2022-09-17T18:03:26.497Z,93824.03
2022-09-17T18:05:56.500Z,93811.59
2022-09-17T18:08:26.007Z,93809.50
2022-09-17T18:10:54.748Z,93798.75
2022-09-17T18:13:22.957Z,93787.03
2022-09-17T18:15:58.746Z,93795.78
2022-09-17T18:18:30.808Z,93816.75
2022-09-17T18:21:01.887Z,93812.78
2022-09-17T18:23:30.009Z,93824.09
2022-09-17T18:25:59.287Z,93833.81
2022-09-17T18:28:28.132Z,93819.84
2022-09-17T18:30:54.997Z,93806.91
2022-09-17T18:33:27.035Z,93822.13
2022-09-17T18:35:57.267Z,93826.66
2022-09-17T18:38:24.486Z,93826.94
2022-09-17T18:40:51.683Z,93814.47
2022-09-17T18:43:19.035Z,93808.69
2022-09-17T18:45:56.584Z,93807.34
2022-09-17T18:48:24.921Z,93806.72
2022-09-17T18:51:01.605Z,93798.94
2022-09-17T18:53:30.282Z,93809.38
2022-09-17T18:56:08.704Z,93803.50
2022-09-17T18:58:35.649Z,93795.13
2022-09-17T19:01:08.468Z,93816.28
2022-09-17T19:03:35.329Z,93794.56
2022-09-17T19:06:04.270Z,93809.78
2022-09-17T19:08:31.243Z,93800.00
2022-09-17T19:10:58.764Z,93808.03
2022-09-17T19:13:26.811Z,93812.75
2022-09-17T19:16:02.648Z,93797.72
2022-09-17T19:18:30.175Z,93787.59
2022-09-17T19:21:08.055Z,93793.59
2022-09-17T19:23:35.900Z,93797.03
2022-09-17T19:26:10.577Z,93798.31
2022-09-17T19:28:37.744Z,93821.91
2022-09-17T19:31:09.580Z,93788.47
2022-09-17T19:33:36.688Z,93794.19
2022-09-17T19:36:06.750Z,93793.19
2022-09-17T19:38:33.674Z,93812.13
2022-09-17T19:41:03.410Z,93807.31
2022-09-17T19:43:30.830Z,93799.22
2022-09-17T19:46:06.638Z,93814.50
2022-09-17T19:48:36.266Z,93801.22
2022-09-17T19:51:04.858Z,93804.44
2022-09-17T19:53:32.967Z,93800.00
2022-09-17T19:56:00.981Z,93784.72
2022-09-17T19:58:27.921Z,93797.03
2022-09-17T20:00:56.162Z,93780.91
2022-09-17T20:03:23.428Z,93778.31
2022-09-17T20:05:50.203Z,93778.19
2022-09-17T20:08:17.050Z,93779.56
2022-09-17T20:10:44.073Z,93769.88
2022-09-17T20:13:10.770Z,93778.63
2022-09-17T20:15:37.869Z,93751.41
2022-09-17T20:18:04.773Z,93772.19
2022-09-17T20:20:31.594Z,93765.44
2022-09-17T20:22:58.386Z,93741.13
2022-09-17T20:25:25.774Z,93767.75
2022-09-17T20:27:53.298Z,93764.84
2022-09-17T20:30:20.324Z,93771.94
2022-09-17T20:32:48.129Z,93756.63
2022-09-17T20:35:15.344Z,93754.59
2022-09-17T20:38:44.415Z,93763.75
2022-09-17T20:40:30.446Z,93767.38
2022-09-17T20:42:57.159Z,93778.06
2022-09-17T20:45:23.949Z,93778.19
2022-09-17T20:47:51.201Z,93779.97
2022-09-17T20:50:18.071Z,93771.88
2022-09-17T20:52:44.804Z,93785.19
2022-09-17T20:55:12.010Z,93759.47
2022-09-17T20:57:38.778Z,93764.66
2022-09-17T21:00:18.012Z,93778.47
2022-09-17T21:02:50.547Z,93765.88
2022-09-17T21:05:18.661Z,93756.09
2022-09-17T21:07:45.715Z,93762.00
2022-09-17T21:10:13.477Z,93749.81
2022-09-17T21:12:40.597Z,93745.03
2022-09-17T21:15:07.738Z,93757.00
2022-09-17T21:17:34.731Z,93751.50
2022-09-17T21:20:02.059Z,93757.41
2022-09-17T21:22:29.056Z,93744.72
2022-09-17T21:24:55.733Z,93764.84
2022-09-17T21:27:22.488Z,93751.69
2022-09-17T21:29:49.215Z,93748.72
2022-09-17T21:32:16.148Z,93747.47
2022-09-17T21:34:42.926Z,93731.06
2022-09-17T21:37:10.928Z,93732.28
2022-09-17T21:39:37.698Z,93731.00
2022-09-17T21:42:04.818Z,93717.31
2022-09-17T21:44:31.681Z,93741.09
2022-09-17T21:46:58.522Z,93764.41
2022-09-17T21:49:25.502Z,93772.16
2022-09-17T21:51:52.251Z,93741.84
2022-09-17T21:54:19.304Z,93754.59
2022-09-17T21:56:46.579Z,93746.38
2022-09-17T21:59:15.418Z,93735.03
2022-09-17T22:01:46.594Z,93750.59
2022-09-17T22:04:17.609Z,93762.19
2022-09-17T22:06:46.054Z,93756.00
2022-09-17T22:09:18.998Z,93750.78
2022-09-17T22:11:46.125Z,93760.03
2022-09-17T22:14:16.635Z,93742.97
2022-09-17T22:16:45.049Z,93742.38
2022-09-17T22:19:14.680Z,93759.63
2022-09-17T22:21:47.484Z,93750.16
2022-09-17T22:24:19.181Z,93765.16
2022-09-17T22:26:50.703Z,93763.44
2022-09-17T22:29:22.144Z,93767.41
2022-09-17T22:31:49.484Z,93750.56
2022-09-17T22:34:19.836Z,93764.16
2022-09-17T22:36:48.247Z,93764.13
2022-09-17T22:39:15.570Z,93767.56
2022-09-17T22:41:45.878Z,93759.72
2022-09-17T22:44:15.767Z,93754.06
2022-09-17T22:46:42.829Z,93772.22
2022-09-17T22:49:11.201Z,93767.59
2022-09-17T22:51:40.356Z,93764.19
2022-09-17T22:54:10.273Z,93770.53
2022-09-17T22:56:37.221Z,93762.09
2022-09-17T22:59:04.812Z,93769.47
2022-09-17T23:01:34.026Z,93781.56
2022-09-17T23:04:01.900Z,93783.44
2022-09-17T23:06:30.983Z,93779.88
2022-09-17T23:08:58.553Z,93785.38
2022-09-17T23:11:34.092Z,93768.31
2022-09-17T23:14:03.618Z,93767.00
2022-09-17T23:16:35.539Z,93795.34
2022-09-17T23:19:21.369Z,93775.44
2022-09-17T23:21:48.671Z,93781.63
2022-09-17T23:24:20.280Z,93788.94
2022-09-17T23:26:47.693Z,93776.53
2022-09-17T23:29:14.665Z,93775.44
2022-09-17T23:31:41.667Z,93790.34
2022-09-17T23:34:08.437Z,93777.75
2022-09-17T23:36:38.086Z,93767.22
2022-09-17T23:39:06.752Z,93777.06
2022-09-17T23:41:40.050Z,93785.00
2022-09-17T23:44:14.571Z,93793.13
2022-09-17T23:46:43.580Z,93797.44
2022-09-17T23:49:11.865Z,93789.09
2022-09-17T23:51:39.452Z,93796.00
2022-09-17T23:54:07.269Z,93807.78
2022-09-17T23:56:35.090Z,93802.06
2022-09-17T23:59:02.308Z,93809.50
